Time;durP1;ratioP1;P1;durP2;ratioP2;P2;SDS_P1;SDS_P2;PMS_P1;PMS_P2;Temp;Humidity;BMP_temperature;BMP_pressure;BME280_temperature;BME280_humidity;BME280_pressure;Samples;Min_cycle;Max_cycle;Signal;HPM_P1;HPM_P2
2021/06/28 00:00:43;;;;;;;19.93;11.30;;;;;;;;;;5054432;28;20892;-74
2021/06/28 00:03:10;;;;;;;24.90;11.00;;;19.00;1.00;;;;;;5055110;28;20447;-74
2021/06/28 00:05:46;;;;;;;20.00;10.60;;;19.00;1.00;;;;;;5054590;28;20486;-74
2021/06/28 00:08:12;;;;;;;15.23;10.30;;;18.90;1.00;;;;;;5054172;28;20413;-74
2021/06/28 00:10:37;;;;;;;24.13;11.57;;;18.90;1.00;;;;;;5067620;28;20413;-74
2021/06/28 00:13:08;;;;;;;18.90;11.13;;;18.90;1.00;;;;;;5073707;28;20200;-74
2021/06/28 00:15:37;;;;;;;27.63;12.03;;;18.80;1.00;;;;;;5072611;28;20204;-74
2021/06/28 00:18:15;;;;;;;19.10;11.97;;;18.80;1.00;;;;;;5073298;28;20463;-75
2021/06/28 00:20:42;;;;;;;23.53;11.30;;;18.70;1.00;;;;;;5059321;28;20429;-74
2021/06/28 00:23:08;;;;;;;29.20;13.87;;;18.70;1.00;;;;;;5054196;28;20462;-74
2021/06/28 00:25:34;;;;;;;20.90;12.90;;;18.70;1.00;;;;;;5053880;28;20393;-74
2021/06/28 00:28:00;;;;;;;24.77;12.93;;;18.60;1.00;;;;;;5053840;28;20418;-74
2021/06/28 00:30:29;;;;;;;22.03;13.10;;;18.60;1.00;;;;;;5053824;28;20181;-74
2021/06/28 00:32:56;;;;;;;23.73;14.80;;;18.60;1.00;;;;;;5054400;28;20404;-74
2021/06/28 00:35:22;;;;;;;19.83;13.00;;;18.50;1.00;;;;;;5073565;28;20818;-74
2021/06/28 00:37:50;;;;;;;27.63;13.33;;;18.60;1.00;;;;;;5062613;28;20444;-75
2021/06/28 00:40:18;;;;;;;21.47;12.70;;;18.50;1.00;;;;;;5052474;28;20435;-74
2021/06/28 00:42:44;;;;;;;19.90;13.00;;;18.50;1.00;;;;;;5055685;28;20454;-74
2021/06/28 00:45:26;;;;;;;27.10;12.37;;;18.50;1.00;;;;;;5069983;28;20510;-74
2021/06/28 00:47:53;;;;;;;19.17;12.33;;;18.40;1.00;;;;;;5054925;28;20416;-74
2021/06/28 00:50:22;;;;;;;25.40;13.83;;;18.40;1.00;;;;;;5052747;28;20415;-75
2021/06/28 00:52:50;;;;;;;37.90;13.63;;;18.40;1.00;;;;;;5058778;28;20422;-74
2021/06/28 00:55:20;;;;;;;18.23;12.93;;;18.40;1.00;;;;;;5057523;28;20451;-74
2021/06/28 00:57:50;;;;;;;25.57;12.80;;;18.30;1.00;;;;;;5060581;28;20517;-74
2021/06/28 01:00:17;;;;;;;40.53;11.63;;;;;;;;;;5073276;28;20799;-74
2021/06/28 01:02:43;;;;;;;20.90;13.03;;;;;;;;;;5071585;28;20777;-74
2021/06/28 01:05:26;;;;;;;25.50;13.83;;;18.20;1.00;;;;;;5073102;28;20395;-74
2021/06/28 01:07:56;;;;;;;20.33;12.77;;;18.20;1.00;;;;;;5073575;28;20419;-75
2021/06/28 01:10:43;;;;;;;24.97;13.23;;;18.20;1.00;;;;;;5073318;28;20401;-76
2021/06/28 01:13:26;;;;;;;32.63;14.33;;;18.20;1.00;;;;;;5053012;28;20488;-75
2021/06/28 01:16:09;;;;;;;25.50;12.93;;;18.10;1.00;;;;;;5053386;28;20406;-75
2021/06/28 01:18:35;;;;;;;23.50;12.60;;;18.10;1.00;;;;;;5067635;28;20425;-76
2021/06/28 01:21:11;;;;;;;34.73;12.77;;;18.10;1.00;;;;;;5072790;28;20414;-76
2021/06/28 01:23:38;;;;;;;34.93;13.67;;;18.00;1.00;;;;;;5073714;28;20553;-75
2021/06/28 01:26:10;;;;;;;36.50;13.17;;;18.00;1.00;;;;;;5072016;28;20783;-74
2021/06/28 01:28:38;;;;;;;20.00;13.30;;;18.00;1.00;;;;;;5067302;28;20419;-74
2021/06/28 01:31:06;;;;;;;25.37;12.43;;;18.00;1.00;;;;;;5073378;28;20413;-74
2021/06/28 01:33:33;;;;;;;29.40;13.50;;;;;;;;;;5073191;28;20430;-74
2021/06/28 01:36:03;;;;;;;21.60;13.77;;;18.00;1.00;;;;;;5055964;28;20419;-74
2021/06/28 01:38:38;;;;;;;35.93;13.27;;;18.00;1.00;;;;;;5053339;28;20489;-74
2021/06/28 01:41:04;;;;;;;28.03;13.53;;;18.00;1.00;;;;;;5052538;28;20500;-74
2021/06/28 01:43:30;;;;;;;24.33;13.40;;;18.00;1.00;;;;;;5052361;28;20581;-74
2021/06/28 01:46:02;;;;;;;26.23;14.10;;;18.00;1.00;;;;;;5061468;28;20194;-74
2021/06/28 01:48:28;;;;;;;19.53;12.50;;;;;;;;;;5072739;28;20448;-74
2021/06/28 01:50:56;;;;;;;26.13;13.10;;;18.00;1.00;;;;;;5053952;28;20415;-74
2021/06/28 01:53:23;;;;;;;32.63;13.20;;;18.00;1.00;;;;;;5053186;28;20479;-74
2021/06/28 01:55:49;;;;;;;31.73;13.57;;;18.00;1.00;;;;;;5069905;28;20523;-74
2021/06/28 01:58:15;;;;;;;47.73;15.00;;;18.00;1.00;;;;;;5072884;28;20495;-74
2021/06/28 02:00:50;;;;;;;23.90;12.77;;;18.00;1.00;;;;;;5053034;28;20418;-74
2021/06/28 02:03:22;;;;;;;27.90;13.50;;;18.00;1.00;;;;;;5052726;28;21009;-74
2021/06/28 02:05:52;;;;;;;18.83;12.83;;;18.00;1.00;;;;;;5052395;28;20891;-74
2021/06/28 02:08:26;;;;;;;29.87;13.93;;;18.00;1.00;;;;;;5052806;28;20941;-74
2021/06/28 02:11:13;;;;;;;36.83;14.33;;;18.00;1.00;;;;;;5052455;28;20414;-76
2021/06/28 02:13:39;;;;;;;17.90;12.93;;;18.00;1.00;;;;;;5052826;28;20513;-75
2021/06/28 02:16:05;;;;;;;20.97;14.37;;;;;;;;;;5055108;28;20422;-76
2021/06/28 02:18:31;;;;;;;26.67;12.50;;;18.00;1.00;;;;;;5057484;28;20176;-76
2021/06/28 02:21:14;;;;;;;29.37;13.47;;;18.00;1.00;;;;;;5056566;28;20548;-76
2021/06/28 02:23:40;;;;;;;26.23;13.60;;;;;;;;;;5056701;28;20196;-74
2021/06/28 02:26:09;;;;;;;22.30;14.40;;;18.00;1.00;;;;;;5056299;28;20438;-74
2021/06/28 02:28:39;;;;;;;39.77;13.20;;;18.00;1.00;;;;;;5056063;28;20878;-74
2021/06/28 02:31:07;;;;;;;21.77;13.40;;;18.00;1.00;;;;;;5056219;28;20391;-74
2021/06/28 02:33:35;;;;;;;26.10;13.20;;;18.00;1.00;;;;;;5067946;28;20966;-74
2021/06/28 02:36:09;;;;;;;21.60;13.10;;;18.00;1.00;;;;;;5074681;28;20537;-74
2021/06/28 02:38:35;;;;;;;27.93;13.70;;;18.00;1.00;;;;;;5070378;28;20425;-74
2021/06/28 02:41:02;;;;;;;25.80;14.20;;;18.00;1.00;;;;;;5063018;28;20390;-75
2021/06/28 02:43:45;;;;;;;28.93;14.40;;;18.00;1.00;;;;;;5056121;28;20778;-76
2021/06/28 02:46:15;;;;;;;28.63;14.23;;;18.00;1.00;;;;;;5055564;28;20411;-75
2021/06/28 02:48:41;;;;;;;26.13;13.83;;;18.00;1.00;;;;;;5075485;28;20393;-75
2021/06/28 02:51:16;;;;;;;30.63;14.30;;;18.00;1.00;;;;;;5062829;28;20502;-76
2021/06/28 02:53:45;;;;;;;19.83;12.83;;;18.00;1.00;;;;;;5055773;28;20412;-74
2021/06/28 02:56:16;;;;;;;18.30;13.00;;;18.00;1.00;;;;;;5069344;28;20427;-76
2021/06/28 02:58:45;;;;;;;18.03;13.37;;;18.00;1.00;;;;;;5056160;28;20396;-75
2021/06/28 03:01:15;;;;;;;20.90;13.07;;;18.00;1.00;;;;;;5055961;28;20395;-75
2021/06/28 03:03:50;;;;;;;23.10;13.30;;;18.00;1.00;;;;;;5055168;28;20433;-76
2021/06/28 03:06:26;;;;;;;25.00;13.13;;;18.00;1.00;;;;;;5055657;28;20391;-75
2021/06/28 03:09:02;;;;;;;31.83;12.47;;;18.00;1.00;;;;;;5056145;28;20370;-74
2021/06/28 03:11:28;;;;;;;26.07;14.80;;;;;;;;;;5054972;28;20414;-75
2021/06/28 03:13:54;;;;;;;20.50;12.93;;;18.00;1.00;;;;;;5070374;28;20869;-76
2021/06/28 03:16:20;;;;;;;26.77;14.10;;;18.00;1.00;;;;;;5055262;28;20423;-75
2021/06/28 03:19:02;;;;;;;24.47;14.10;;;18.00;1.00;;;;;;5055207;28;20978;-75
2021/06/28 03:21:44;;;;;;;23.57;12.70;;;18.00;1.00;;;;;;5055862;28;20173;-76
2021/06/28 03:24:10;;;;;;;22.83;13.43;;;18.00;1.00;;;;;;5055548;28;20524;-74
2021/06/28 03:26:36;;;;;;;23.40;13.20;;;;;;;;;;5054164;28;20945;-74
2021/06/28 03:29:01;;;;;;;30.03;13.93;;;18.00;1.00;;;;;;5055407;28;20528;-74
2021/06/28 03:31:32;;;;;;;27.13;13.87;;;18.00;1.00;;;;;;5075097;28;20410;-74
2021/06/28 03:33:59;;;;;;;21.73;14.50;;;18.00;1.00;;;;;;5075082;28;20157;-74
2021/06/28 03:36:26;;;;;;;26.40;13.80;;;18.00;1.00;;;;;;5075142;28;20495;-74
2021/06/28 03:38:51;;;;;;;21.13;13.20;;;18.00;1.00;;;;;;5060182;28;20902;-74
2021/06/28 03:41:20;;;;;;;26.83;14.07;;;18.00;1.00;;;;;;5061703;28;20427;-74
2021/06/28 03:43:56;;;;;;;23.07;14.23;;;18.10;1.00;;;;;;5054645;28;20192;-74
2021/06/28 03:46:21;;;;;;;24.00;13.93;;;18.10;1.00;;;;;;5054773;28;20433;-74
2021/06/28 03:48:47;;;;;;;23.53;12.90;;;;;;;;;;5054527;28;20851;-75
2021/06/28 03:51:13;;;;;;;28.57;14.63;;;18.20;1.00;;;;;;5054565;28;20180;-74
2021/06/28 03:53:44;;;;;;;19.90;12.33;;;18.20;1.00;;;;;;5054782;28;20408;-74
2021/06/28 03:56:20;;;;;;;23.23;13.63;;;18.30;1.00;;;;;;5054894;28;20537;-75
2021/06/28 03:58:50;;;;;;;31.33;13.67;;;18.30;1.00;;;;;;5054922;28;20502;-76
2021/06/28 04:01:26;;;;;;;19.53;12.87;;;18.40;1.00;;;;;;5053823;28;20422;-75
2021/06/28 04:03:54;;;;;;;19.07;13.03;;;18.40;1.00;;;;;;5054679;28;20930;-75
2021/06/28 04:06:20;;;;;;;27.30;13.57;;;18.50;1.00;;;;;;5054117;28;20410;-75
2021/06/28 04:09:13;;;;;;;18.50;12.30;;;18.50;1.00;;;;;;5069514;28;20408;-76
2021/06/28 04:11:39;;;;;;;29.83;12.40;;;18.50;1.00;;;;;;5063907;28;20456;-81
2021/06/28 04:14:14;;;;;;;25.37;13.27;;;18.50;1.00;;;;;;5053764;28;20487;-77
2021/06/28 04:16:44;;;;;;;26.83;13.17;;;18.50;1.00;;;;;;5053992;28;20179;-77
2021/06/28 04:19:43;;;;;;;20.93;12.37;;;18.50;1.00;;;;;;5069880;28;20756;-77
2021/06/28 04:22:43;;;;;;;24.30;13.40;;;18.50;1.00;;;;;;5074269;28;20407;-77
2021/06/28 04:25:16;;;;;;;21.50;11.83;;;18.60;1.00;;;;;;5074271;28;20395;-77
2021/06/28 04:27:50;;;;;;;21.50;13.23;;;18.60;1.00;;;;;;5072900;28;20438;-77
2021/06/28 04:33:37;;;;;;;16.40;11.20;;;18.60;1.00;;;;;;5053560;28;20419;-77
2021/06/28 04:36:25;;;;;;;21.93;12.90;;;18.70;1.00;;;;;;5053534;28;20899;-77
2021/06/28 04:39:44;;;;;;;24.33;13.77;;;18.80;1.00;;;;;;5073463;28;20521;-77
2021/06/28 04:42:10;;;;;;;22.60;13.17;;;18.90;1.00;;;;;;5073361;28;20407;-74
2021/06/28 04:44:36;;;;;;;28.47;12.83;;;;;;;;;;5069899;28;20440;-74
2021/06/28 04:47:03;;;;;;;18.90;11.40;;;19.00;1.00;;;;;;5056061;28;20189;-73
2021/06/28 04:49:29;;;;;;;19.57;12.80;;;19.10;1.00;;;;;;5053064;28;20431;-74
2021/06/28 04:52:02;;;;;;;21.40;12.03;;;19.20;1.00;;;;;;5053477;28;20415;-75
2021/06/28 04:54:32;;;;;;;27.80;13.03;;;19.40;1.00;;;;;;5059901;28;20668;-74
2021/06/28 04:57:08;;;;;;;20.73;12.20;;;19.60;1.00;;;;;;5072963;28;20407;-75
2021/06/28 04:59:34;;;;;;;33.77;14.53;;;19.70;1.00;;;;;;5052807;28;20496;-73
2021/06/28 05:02:15;;;;;;;21.67;11.83;;;19.90;1.00;;;;;;5053758;28;20480;-75
2021/06/28 05:04:50;;;;;;;17.50;11.27;;;20.10;1.00;;;;;;5059082;28;20179;-75
2021/06/28 05:07:44;;;;;;;22.90;12.40;;;20.30;1.00;;;;;;5055402;28;20468;-74
2021/06/28 05:10:12;;;;;;;29.87;11.90;;;20.60;1.00;;;;;;5053634;28;20398;-73
2021/06/28 05:12:37;;;;;;;17.50;11.33;;;20.80;1.00;;;;;;5053135;28;20927;-74
2021/06/28 05:15:05;;;;;;;21.50;12.30;;;20.90;1.00;;;;;;5053135;28;20417;-75
2021/06/28 05:17:32;;;;;;;19.57;11.10;;;21.00;1.00;;;;;;5054721;28;20191;-75
2021/06/28 05:20:05;;;;;;;18.13;11.20;;;21.00;1.00;;;;;;5058926;28;20735;-75
2021/06/28 05:22:32;;;;;;;18.53;11.83;;;21.10;1.00;;;;;;5056678;28;20411;-75
2021/06/28 05:24:58;;;;;;;21.30;12.33;;;21.10;1.00;;;;;;5053168;28;20391;-75
2021/06/28 05:27:24;;;;;;;23.23;12.50;;;21.10;1.00;;;;;;5053443;28;20471;-75
2021/06/28 05:29:56;;;;;;;30.13;12.00;;;;;;;;;;5063518;28;20176;-75
2021/06/28 05:32:27;;;;;;;20.63;12.30;;;21.30;1.00;;;;;;5069569;28;20417;-75
2021/06/28 05:34:53;;;;;;;22.43;11.63;;;21.40;1.00;;;;;;5053141;28;20373;-76
2021/06/28 05:37:19;;;;;;;33.87;15.20;;;21.50;1.00;;;;;;5057912;28;20401;-75
2021/06/28 05:39:46;;;;;;;22.37;12.63;;;21.60;1.00;;;;;;5066055;28;20522;-75
2021/06/28 05:42:12;;;;;;;17.20;11.90;;;21.60;1.00;;;;;;5062429;28;20407;-74
2021/06/28 05:44:38;;;;;;;20.33;11.10;;;;;;;;;;5059846;28;20452;-74
2021/06/28 05:47:04;;;;;;;16.17;11.00;;;22.10;1.00;;;;;;5052551;28;20813;-74
2021/06/28 05:49:34;;;;;;;20.40;11.93;;;22.30;1.00;;;;;;5054264;28;20446;-74
2021/06/28 05:52:00;;;;;;;15.23;11.17;;;22.40;1.00;;;;;;5056864;28;20695;-74
2021/06/28 05:54:26;;;;;;;15.60;10.87;;;22.50;1.00;;;;;;5056920;28;20528;-74
2021/06/28 05:56:51;;;;;;;16.10;11.30;;;22.70;1.00;;;;;;5054688;28;20182;-75
2021/06/28 05:59:17;;;;;;;19.80;10.33;;;22.60;99.90;;;;;;5064365;28;20203;-75
2021/06/28 06:01:43;;;;;;;14.97;10.73;;;22.60;99.90;;;;;;5061913;28;20193;-75
2021/06/28 06:04:14;;;;;;;17.17;10.63;;;22.50;99.90;;;;;;5059299;28;20213;-75
2021/06/28 06:06:43;;;;;;;21.00;10.50;;;22.50;99.90;;;;;;5070816;28;20173;-75
2021/06/28 06:09:09;;;;;;;20.93;11.60;;;22.40;1.00;;;;;;5060981;28;20435;-75
2021/06/28 06:11:35;;;;;;;18.73;11.80;;;22.40;1.00;;;;;;5054779;28;20420;-75
2021/06/28 06:14:01;;;;;;;19.97;12.13;;;22.40;1.00;;;;;;5068315;28;20443;-75
2021/06/28 06:16:32;;;;;;;24.20;12.77;;;22.40;1.00;;;;;;5061104;28;20647;-74
2021/06/28 06:19:02;;;;;;;32.30;11.70;;;22.40;99.90;;;;;;5076328;28;20528;-76
2021/06/28 06:21:28;;;;;;;44.47;17.20;;;22.40;1.00;;;;;;5059727;28;20428;-75
2021/06/28 06:23:54;;;;;;;20.57;12.50;;;22.40;1.00;;;;;;5063464;28;20836;-75
2021/06/28 06:26:20;;;;;;;19.10;12.70;;;22.40;1.00;;;;;;5076884;28;20632;-75
2021/06/28 06:28:47;;;;;;;14.80;11.77;;;22.50;1.00;;;;;;5076063;28;20302;-75
2021/06/28 06:31:13;;;;;;;17.60;11.90;;;22.50;1.00;;;;;;5075965;28;20460;-75
2021/06/28 06:33:39;;;;;;;18.60;12.23;;;22.70;1.00;;;;;;5074238;28;20421;-75
2021/06/28 06:36:05;;;;;;;23.00;12.20;;;22.90;1.00;;;;;;5072488;28;20222;-75
2021/06/28 06:38:31;;;;;;;21.67;12.13;;;23.10;1.00;;;;;;5055132;28;20796;-76
2021/06/28 06:40:57;;;;;;;14.77;11.30;;;23.40;99.90;;;;;;5056686;28;20444;-78
2021/06/28 06:43:23;;;;;;;17.53;11.57;;;23.50;99.90;;;;;;5055937;28;20209;-77
2021/06/28 06:45:49;;;;;;;18.63;11.07;;;23.50;99.90;;;;;;5071518;28;20485;-76
2021/06/28 06:48:20;;;;;;;18.53;11.40;;;23.90;99.90;;;;;;5065375;28;20160;-76
2021/06/28 06:50:46;;;;;;;21.00;12.53;;;24.10;99.90;;;;;;5054763;28;20448;-76
2021/06/28 06:53:11;;;;;;;21.50;11.60;;;24.30;99.90;;;;;;5054729;28;20406;-77
2021/06/28 06:55:37;;;;;;;15.50;10.50;;;24.50;99.90;;;;;;5070364;28;20652;-76
2021/06/28 06:58:08;;;;;;;19.80;11.47;;;24.60;99.90;;;;;;5074778;28;20194;-74
2021/06/28 07:00:34;;;;;;;16.93;11.40;;;24.80;99.90;;;;;;5064541;28;20170;-75
2021/06/28 07:03:00;;;;;;;12.17;10.07;;;24.80;99.90;;;;;;5054605;28;20456;-75
2021/06/28 07:05:26;;;;;;;19.77;11.53;;;24.90;99.90;;;;;;5054094;28;20402;-74
2021/06/28 07:07:51;;;;;;;15.73;11.27;;;24.90;99.90;;;;;;5054487;28;20204;-76
2021/06/28 07:10:17;;;;;;;14.33;10.57;;;25.00;99.90;;;;;;5053876;28;20183;-77
2021/06/28 07:12:44;;;;;;;18.73;10.97;;;25.00;99.90;;;;;;5054436;28;20197;-79
2021/06/28 07:15:12;;;;;;;16.03;10.50;;;25.10;99.90;;;;;;5058013;28;20433;-79
2021/06/28 07:17:38;;;;;;;14.43;10.60;;;25.10;99.90;;;;;;5070656;28;20524;-75
2021/06/28 07:20:05;;;;;;;12.53;9.30;;;25.40;99.90;;;;;;5053648;28;20507;-74
2021/06/28 07:22:31;;;;;;;18.80;10.73;;;25.50;99.90;;;;;;5056321;28;20196;-74
2021/06/28 07:24:57;;;;;;;17.97;9.47;;;25.60;99.90;;;;;;5065783;28;20399;-74
2021/06/28 07:27:23;;;;;;;15.17;9.50;;;25.60;99.90;;;;;;5053957;28;20161;-75
2021/06/28 07:29:48;;;;;;;16.50;8.40;;;25.40;99.90;;;;;;5065367;28;20202;-76
2021/06/28 07:32:14;;;;;;;8.80;7.33;;;;;;;;;;5074363;28;20186;-75
2021/06/28 07:34:40;;;;;;;12.60;8.30;;;25.40;99.90;;;;;;5074201;28;20609;-76
2021/06/28 07:37:09;;;;;;;19.70;7.97;;;;;;;;;;5063314;28;20529;-75
2021/06/28 07:39:35;;;;;;;12.13;8.50;;;25.40;99.90;;;;;;5071787;28;20191;-74
2021/06/28 07:42:00;;;;;;;12.47;8.23;;;25.40;99.90;;;;;;5073742;28;20403;-75
2021/06/28 07:44:27;;;;;;;8.93;6.77;;;25.40;99.90;;;;;;5068755;28;20662;-75
2021/06/28 07:46:53;;;;;;;10.53;7.33;;;25.40;99.90;;;;;;5053775;28;20159;-75
2021/06/28 07:49:19;;;;;;;10.70;6.97;;;25.30;99.90;;;;;;5058746;28;20420;-75
2021/06/28 07:51:44;;;;;;;12.30;7.40;;;25.30;99.90;;;;;;5064510;28;20258;-75
2021/06/28 07:54:14;;;;;;;8.43;6.23;;;25.30;99.90;;;;;;5068952;28;20186;-75
2021/06/28 07:56:39;;;;;;;7.80;6.40;;;25.30;99.90;;;;;;5056030;28;20178;-74
2021/06/28 07:59:05;;;;;;;10.57;7.37;;;;;;;;;;5057423;28;20433;-74
2021/06/28 08:01:31;;;;;;;12.90;6.80;;;;;;;;;;5068090;28;20250;-74
2021/06/28 08:03:57;;;;;;;11.90;7.53;;;25.40;99.90;;;;;;5066337;28;20465;-74
2021/06/28 08:06:23;;;;;;;9.90;6.90;;;25.50;99.90;;;;;;5052837;28;20913;-74
2021/06/28 08:08:51;;;;;;;9.03;6.60;;;25.50;99.90;;;;;;5061525;28;20439;-74
2021/06/28 08:11:18;;;;;;;8.10;6.67;;;25.60;99.90;;;;;;5072315;28;20254;-74
2021/06/28 08:13:46;;;;;;;8.43;6.20;;;25.60;99.90;;;;;;5073438;28;20473;-75
2021/06/28 08:16:13;;;;;;;8.87;6.47;;;25.70;99.90;;;;;;5072823;28;20402;-75
2021/06/28 08:18:39;;;;;;;13.60;5.83;;;25.80;99.90;;;;;;5052838;28;20845;-75
2021/06/28 08:21:05;;;;;;;6.60;5.90;;;25.80;99.90;;;;;;5053101;28;20435;-75
2021/06/28 08:23:31;;;;;;;9.50;5.20;;;;;;;;;;5052871;28;20489;-75
2021/06/28 08:25:57;;;;;;;5.37;4.87;;;26.00;99.90;;;;;;5052557;28;20396;-75
2021/06/28 08:28:24;;;;;;;5.63;5.10;;;26.10;99.90;;;;;;5053408;28;20392;-75
2021/06/28 08:30:50;;;;;;;7.30;4.33;;;26.10;99.90;;;;;;5052221;28;20407;-74
2021/06/28 08:33:16;;;;;;;5.23;4.20;;;26.10;99.90;;;;;;5058643;28;20441;-74
2021/06/28 08:35:42;;;;;;;5.10;4.60;;;26.20;99.90;;;;;;5068234;28;20901;-74
2021/06/28 08:38:09;;;;;;;15.60;6.63;;;26.20;99.90;;;;;;5064136;28;20645;-74
2021/06/28 08:40:36;;;;;;;7.70;4.27;;;26.30;99.90;;;;;;5055684;28;20181;-74
2021/06/28 08:43:03;;;;;;;4.50;4.07;;;26.30;99.90;;;;;;5057341;28;20446;-74
2021/06/28 08:45:35;;;;;;;4.97;4.57;;;26.30;99.90;;;;;;5058093;28;20424;-74
2021/06/28 08:48:01;;;;;;;4.53;4.00;;;26.40;99.90;;;;;;5058880;28;20405;-74
2021/06/28 08:50:26;;;;;;;9.50;4.23;;;26.50;99.90;;;;;;5071950;28;20424;-74
2021/06/28 08:52:54;;;;;;;4.03;3.70;;;26.60;99.90;;;;;;5073511;28;20465;-74
2021/06/28 08:55:19;;;;;;;3.50;3.20;;;26.80;99.90;;;;;;5080686;28;20438;-74
2021/06/28 08:57:45;;;;;;;4.30;3.90;;;26.80;99.90;;;;;;5072565;28;20415;-75
2021/06/28 09:00:15;;;;;;;4.63;3.90;;;27.10;99.90;;;;;;5070694;28;20185;-75
2021/06/28 09:02:52;;;;;;;4.30;3.90;;;27.10;99.90;;;;;;5066766;28;20441;-76
2021/06/28 09:05:18;;;;;;;6.17;4.20;;;;;;;;;;5052772;28;20469;-74
2021/06/28 09:07:44;;;;;;;4.83;4.43;;;27.60;99.90;;;;;;5051993;28;20527;-74
2021/06/28 09:10:34;;;;;;;5.60;4.10;;;27.80;99.90;;;;;;5052213;28;20407;-74
2021/06/28 09:13:00;;;;;;;4.40;4.00;;;28.00;99.90;;;;;;5052657;28;20185;-75
2021/06/28 09:15:50;;;;;;;5.70;4.17;;;28.20;99.90;;;;;;5062250;28;20498;-76
2021/06/28 09:18:24;;;;;;;4.90;4.40;;;28.20;99.90;;;;;;5072356;28;20157;-75
2021/06/28 09:21:09;;;;;;;5.80;4.80;;;28.20;99.90;;;;;;5072616;28;20887;-76
2021/06/28 09:23:40;;;;;;;7.53;4.10;;;28.00;99.90;;;;;;5071348;28;20441;-75
2021/06/28 09:26:16;;;;;;;5.80;4.83;;;28.00;99.90;;;;;;5071696;28;20390;-76
2021/06/28 09:28:54;;;;;;;8.33;4.07;;;;;;;;;;5072542;28;20399;-75
2021/06/28 09:31:33;;;;;;;7.87;4.70;;;28.20;99.90;;;;;;5071276;28;20496;-76
2021/06/28 09:34:07;;;;;;;7.17;4.10;;;28.30;99.90;;;;;;5051749;28;20783;-75
2021/06/28 09:36:46;;;;;;;4.73;4.33;;;28.40;99.90;;;;;;5055255;28;20416;-75
2021/06/28 09:39:20;;;;;;;7.73;4.73;;;28.50;99.90;;;;;;5051967;28;20414;-75
2021/06/28 09:41:46;;;;;;;4.93;4.30;;;28.60;99.90;;;;;;5061118;28;20420;-76
2021/06/28 09:44:13;;;;;;;7.37;4.17;;;28.50;99.90;;;;;;5071163;28;20502;-75
2021/06/28 09:46:38;;;;;;;4.20;3.80;;;28.50;99.90;;;;;;5070060;28;20875;-76
2021/06/28 09:49:06;;;;;;;21.47;5.20;;;28.40;99.90;;;;;;5072019;28;20420;-75
2021/06/28 09:51:36;;;;;;;4.00;3.60;;;28.30;99.90;;;;;;5071813;28;20164;-75
2021/06/28 09:54:10;;;;;;;6.67;4.20;;;28.40;99.90;;;;;;5071863;28;20462;-75
2021/06/28 09:56:40;;;;;;;13.40;3.60;;;28.60;99.90;;;;;;5071855;28;20434;-75
2021/06/28 09:59:33;;;;;;;3.80;3.50;;;28.70;99.90;;;;;;5071840;28;20408;-74
2021/06/28 10:02:14;;;;;;;4.17;3.77;;;28.80;99.90;;;;;;5071829;28;20404;-74
2021/06/28 10:05:19;;;;;;;4.37;3.67;;;28.90;99.90;;;;;;5071626;28;20448;-74
2021/06/28 10:07:45;;;;;;;5.50;3.73;;;29.00;99.90;;;;;;5071053;28;20442;-74
2021/06/28 10:10:20;;;;;;;4.63;3.80;;;28.90;99.90;;;;;;5071742;28;20399;-74
2021/06/28 10:12:52;;;;;;;3.70;3.40;;;29.00;99.90;;;;;;5071796;28;20190;-75
2021/06/28 10:15:22;;;;;;;4.30;3.20;;;29.00;99.90;;;;;;5071681;28;20486;-75
2021/06/28 10:17:48;;;;;;;9.10;4.13;;;29.20;99.90;;;;;;5071394;28;20427;-75
2021/06/28 10:20:17;;;;;;;5.03;3.30;;;29.50;99.90;;;;;;5071701;28;20428;-76
2021/06/28 10:22:44;;;;;;;3.73;3.43;;;29.70;99.90;;;;;;5071815;28;20396;-75
2021/06/28 10:25:11;;;;;;;3.43;3.13;;;29.80;99.90;;;;;;5071678;28;20397;-76
2021/06/28 10:27:38;;;;;;;3.33;3.03;;;30.00;99.90;;;;;;5071265;28;20405;-76
2021/06/28 10:30:08;;;;;;;3.33;3.03;;;30.30;99.90;;;;;;5072025;28;20418;-75
2021/06/28 10:32:34;;;;;;;3.30;3.00;;;30.40;99.90;;;;;;5060704;28;20453;-76
2021/06/28 10:35:01;;;;;;;6.93;3.10;;;;;;;;;;5052580;28;20421;-75
2021/06/28 10:37:34;;;;;;;3.63;3.20;;;30.70;99.90;;;;;;5055482;28;20436;-76
2021/06/28 10:40:05;;;;;;;3.07;2.80;;;30.50;99.90;;;;;;5064807;28;20806;-76
2021/06/28 10:42:33;;;;;;;4.37;3.20;;;30.60;99.90;;;;;;5074266;28;20411;-76
2021/06/28 10:44:59;;;;;;;4.70;3.13;;;30.60;99.90;;;;;;5068849;28;20994;-75
2021/06/28 10:47:27;;;;;;;3.20;3.00;;;30.70;99.90;;;;;;5074790;28;20517;-75
2021/06/28 10:49:53;;;;;;;3.77;3.13;;;30.80;99.90;;;;;;5075043;28;20398;-76
2021/06/28 10:52:33;;;;;;;3.43;3.07;;;30.80;99.90;;;;;;5074358;28;20903;-76
2021/06/28 10:55:18;;;;;;;3.40;3.10;;;30.80;99.90;;;;;;5071888;28;20430;-75
2021/06/28 10:57:44;;;;;;;3.10;2.90;;;30.80;99.90;;;;;;5063806;28;20839;-76
2021/06/28 11:00:11;;;;;;;4.33;3.43;;;;;;;;;;5068180;28;20421;-76
2021/06/28 11:02:38;;;;;;;3.30;3.10;;;30.30;99.90;;;;;;5061589;28;20414;-76
2021/06/28 11:05:06;;;;;;;7.40;3.60;;;30.20;99.90;;;;;;5054189;28;20521;-76
2021/06/28 11:07:47;;;;;;;3.23;3.03;;;30.00;99.90;;;;;;5054572;28;20458;-76
2021/06/28 11:10:37;;;;;;;6.20;2.90;;;29.90;99.90;;;;;;5054406;28;20452;-76
2021/06/28 11:13:27;;;;;;;4.00;3.67;;;30.00;99.90;;;;;;5053076;28;20455;-76
2021/06/28 11:15:52;;;;;;;3.27;2.97;;;30.20;99.90;;;;;;5054335;28;20432;-76
2021/06/28 11:18:29;;;;;;;3.33;3.10;;;30.40;99.90;;;;;;5062844;28;20443;-76
2021/06/28 11:20:55;;;;;;;19.73;6.40;;;;;;;;;;5063022;28;20182;-76
2021/06/28 11:23:20;;;;;;;4.83;3.20;;;30.50;99.90;;;;;;5059033;28;20524;-76
2021/06/28 11:25:55;;;;;;;3.37;3.07;;;30.80;99.90;;;;;;5053734;28;20409;-76
2021/06/28 11:28:32;;;;;;;3.90;3.50;;;30.90;99.90;;;;;;5066540;28;20229;-76
2021/06/28 11:31:03;;;;;;;4.73;3.47;;;31.20;99.90;;;;;;5068304;28;20429;-76
2021/06/28 11:33:45;;;;;;;3.83;3.53;;;31.20;99.90;;;;;;5071209;28;20410;-76
2021/06/28 11:36:23;;;;;;;7.13;3.47;;;31.60;99.90;;;;;;5070897;28;20934;-75
2021/06/28 11:38:55;;;;;;;6.50;3.47;;;31.80;99.90;;;;;;5059202;28;20430;-76
2021/06/28 11:41:34;;;;;;;6.33;3.87;;;31.90;99.90;;;;;;5054486;28;20428;-76
2021/06/28 11:44:03;;;;;;;5.40;3.70;;;32.00;99.90;;;;;;5056739;28;20442;-74
2021/06/28 11:46:31;;;;;;;4.50;3.40;;;32.10;99.90;;;;;;5073762;28;20430;-74
2021/06/28 11:49:14;;;;;;;8.43;3.20;;;32.30;99.90;;;;;;5065115;28;20468;-74
2021/06/28 11:51:44;;;;;;;3.57;3.27;;;32.30;99.90;;;;;;5054836;28;20456;-74
2021/06/28 11:54:15;;;;;;;4.20;3.73;;;32.20;99.90;;;;;;5054664;28;20426;-73
2021/06/28 11:56:46;;;;;;;4.37;3.40;;;32.20;99.90;;;;;;5053642;28;20442;-74
2021/06/28 11:59:23;;;;;;;4.10;3.53;;;31.90;99.90;;;;;;5054697;28;20402;-74
2021/06/28 12:01:55;;;;;;;8.40;4.00;;;31.70;99.90;;;;;;5053801;28;20457;-74
2021/06/28 12:04:21;;;;;;;5.13;3.60;;;31.70;99.90;;;;;;5055311;28;20511;-74
2021/06/28 12:06:50;;;;;;;4.37;3.97;;;31.70;99.90;;;;;;5072337;28;20452;-74
2021/06/28 12:09:34;;;;;;;4.03;3.73;;;31.60;99.90;;;;;;5066540;28;20458;-74
2021/06/28 12:12:12;;;;;;;6.20;4.20;;;31.60;99.90;;;;;;5060714;28;20405;-74
2021/06/28 12:14:49;;;;;;;5.80;3.73;;;31.30;99.90;;;;;;5070403;28;20441;-76
2021/06/28 12:17:19;;;;;;;4.00;3.57;;;31.40;99.90;;;;;;5053790;28;20429;-76
2021/06/28 12:19:51;;;;;;;4.20;3.80;;;31.40;99.90;;;;;;5060826;28;20425;-76
2021/06/28 12:22:21;;;;;;;4.13;3.83;;;31.40;99.90;;;;;;5070082;28;20433;-76
2021/06/28 12:24:49;;;;;;;5.00;3.53;;;31.60;99.90;;;;;;5064459;28;20472;-76
2021/06/28 12:27:18;;;;;;;5.27;4.17;;;31.50;99.90;;;;;;5052450;28;20402;-76
2021/06/28 12:29:48;;;;;;;4.20;3.80;;;31.90;99.90;;;;;;5065884;28;20401;-75
2021/06/28 12:32:16;;;;;;;4.27;3.87;;;32.30;99.90;;;;;;5072852;28;20524;-75
2021/06/28 12:34:50;;;;;;;4.23;3.83;;;32.60;99.90;;;;;;5072570;28;20465;-74
2021/06/28 12:37:30;;;;;;;6.17;3.90;;;32.70;99.90;;;;;;5065208;28;20799;-74
2021/06/28 12:40:22;;;;;;;3.97;3.67;;;32.80;99.90;;;;;;5059091;28;20432;-74
2021/06/28 12:42:57;;;;;;;3.97;3.57;;;32.70;99.90;;;;;;5062367;28;20422;-74
2021/06/28 12:45:25;;;;;;;5.00;3.83;;;32.70;99.90;;;;;;5062529;28;20960;-74
2021/06/28 12:47:55;;;;;;;3.83;3.53;;;32.60;99.90;;;;;;5063346;28;20513;-73
2021/06/28 12:50:25;;;;;;;5.30;3.80;;;32.60;99.90;;;;;;5070332;28;20413;-75
2021/06/28 12:52:51;;;;;;;4.47;4.00;;;32.70;99.90;;;;;;5062067;28;20426;-74
2021/06/28 12:55:33;;;;;;;6.23;4.20;;;32.80;99.90;;;;;;5066013;28;20433;-74
2021/06/28 12:58:11;;;;;;;5.33;3.60;;;33.00;99.90;;;;;;5059126;28;20534;-76
2021/06/28 13:00:43;;;;;;;4.03;3.63;;;33.30;99.90;;;;;;5053090;28;20564;-74
2021/06/28 13:03:18;;;;;;;6.43;3.70;;;33.60;99.90;;;;;;5057977;28;20448;-74
2021/06/28 13:05:49;;;;;;;3.93;3.60;;;33.70;99.90;;;;;;5070100;28;20423;-75
2021/06/28 13:08:31;;;;;;;5.10;4.03;;;33.80;99.90;;;;;;5069529;28;20430;-74